sensor_id;sensor_type;location;lat;lon;timestamp;pressure;altitude;pressure_sealevel;temperature;humidity
47738;BME280;33502;47.182;27.506;2022-07-23T00:01:31;100286.41;;;18.14;87.53
47738;BME280;33502;47.182;27.506;2022-07-23T00:03:57;100290.75;;;18.04;88.95
47738;BME280;33502;47.182;27.506;2022-07-23T00:06:23;100285.72;;;17.99;88.44
47738;BME280;33502;47.182;27.506;2022-07-23T00:08:49;100291.31;;;17.96;88.18
47738;BME280;33502;47.182;27.506;2022-07-23T00:11:16;100288.97;;;17.92;88.26
47738;BME280;33502;47.182;27.506;2022-07-23T00:13:41;100284.91;;;17.86;88.11
47738;BME280;33502;47.182;27.506;2022-07-23T00:16:08;100278.81;;;17.84;88.80
47738;BME280;33502;47.182;27.506;2022-07-23T00:18:33;100284.91;;;17.86;90.90
47738;BME280;33502;47.182;27.506;2022-07-23T00:20:59;100283.09;;;17.87;89.75
47738;BME280;33502;47.182;27.506;2022-07-23T00:23:25;100281.03;;;17.90;88.71
47738;BME280;33502;47.182;27.506;2022-07-23T00:25:52;100279.88;;;17.94;89.26
47738;BME280;33502;47.182;27.506;2022-07-23T00:28:18;100275.63;;;18.03;89.15
47738;BME280;33502;47.182;27.506;2022-07-23T00:30:44;100276.03;;;18.10;88.43
47738;BME280;33502;47.182;27.506;2022-07-23T00:33:11;100274.19;;;18.10;88.33
47738;BME280;33502;47.182;27.506;2022-07-23T00:35:40;100264.22;;;18.12;88.93
47738;BME280;33502;47.182;27.506;2022-07-23T00:38:08;100264.97;;;18.14;89.06
47738;BME280;33502;47.182;27.506;2022-07-23T00:40:35;100263.47;;;18.10;88.93
47738;BME280;33502;47.182;27.506;2022-07-23T00:43:02;100266.97;;;17.99;89.24
47738;BME280;33502;47.182;27.506;2022-07-23T00:45:28;100268.50;;;17.91;89.82
47738;BME280;33502;47.182;27.506;2022-07-23T00:47:54;100264.16;;;17.77;90.75
47738;BME280;33502;47.182;27.506;2022-07-23T00:50:20;100265.78;;;17.67;91.67
47738;BME280;33502;47.182;27.506;2022-07-23T00:52:45;100271.59;;;17.60;95.03
47738;BME280;33502;47.182;27.506;2022-07-23T00:55:12;100269.69;;;17.50;94.45
47738;BME280;33502;47.182;27.506;2022-07-23T00:57:39;100269.59;;;17.38;96.70
47738;BME280;33502;47.182;27.506;2022-07-23T01:00:07;100271.88;;;17.32;96.38
47738;BME280;33502;47.182;27.506;2022-07-23T01:02:34;100279.28;;;17.28;96.74
47738;BME280;33502;47.182;27.506;2022-07-23T01:05:00;100275.63;;;17.29;99.95
47738;BME280;33502;47.182;27.506;2022-07-23T01:07:27;100283.66;;;17.29;98.10
47738;BME280;33502;47.182;27.506;2022-07-23T01:09:54;100277.22;;;17.32;98.46
47738;BME280;33502;47.182;27.506;2022-07-23T01:12:20;100274.22;;;17.36;96.78
47738;BME280;33502;47.182;27.506;2022-07-23T01:14:57;100276.34;;;17.44;96.56
47738;BME280;33502;47.182;27.506;2022-07-23T01:17:24;100268.09;;;17.47;95.05
47738;BME280;33502;47.182;27.506;2022-07-23T01:19:50;100277.94;;;17.47;95.67
47738;BME280;33502;47.182;27.506;2022-07-23T01:22:18;100279.16;;;17.42;95.67
47738;BME280;33502;47.182;27.506;2022-07-23T01:24:45;100280.31;;;17.38;95.90
47738;BME280;33502;47.182;27.506;2022-07-23T01:27:11;100279.34;;;17.39;96.22
47738;BME280;33502;47.182;27.506;2022-07-23T01:29:39;100275.69;;;17.40;95.94
47738;BME280;33502;47.182;27.506;2022-07-23T01:32:11;100281.69;;;17.44;96.03
47738;BME280;33502;47.182;27.506;2022-07-23T01:34:37;100279.09;;;17.55;94.16
47738;BME280;33502;47.182;27.506;2022-07-23T01:37:03;100276.59;;;17.65;93.93
47738;BME280;33502;47.182;27.506;2022-07-23T01:39:30;100278.38;;;17.77;93.11
47738;BME280;33502;47.182;27.506;2022-07-23T01:41:56;100278.81;;;17.84;92.04
47738;BME280;33502;47.182;27.506;2022-07-23T01:44:23;100277.41;;;17.91;91.70
47738;BME280;33502;47.182;27.506;2022-07-23T01:46:49;100281.56;;;17.95;91.08
47738;BME280;33502;47.182;27.506;2022-07-23T01:49:16;100283.03;;;17.99;90.45
47738;BME280;33502;47.182;27.506;2022-07-23T01:52:02;100282.06;;;18.00;90.26
47738;BME280;33502;47.182;27.506;2022-07-23T01:54:41;100284.00;;;17.98;90.73
47738;BME280;33502;47.182;27.506;2022-07-23T01:57:08;100284.47;;;17.92;91.01
47738;BME280;33502;47.182;27.506;2022-07-23T01:59:34;100268.97;;;17.85;91.65
47738;BME280;33502;47.182;27.506;2022-07-23T02:02:01;100271.19;;;17.78;92.25
47738;BME280;33502;47.182;27.506;2022-07-23T02:04:28;100277.75;;;17.74;92.33
47738;BME280;33502;47.182;27.506;2022-07-23T02:06:54;100277.66;;;17.75;93.72
47738;BME280;33502;47.182;27.506;2022-07-23T02:09:20;100281.06;;;17.77;94.28
47738;BME280;33502;47.182;27.506;2022-07-23T02:11:46;100274.56;;;17.69;95.03
47738;BME280;33502;47.182;27.506;2022-07-23T02:14:12;100284.34;;;17.57;95.02
47738;BME280;33502;47.182;27.506;2022-07-23T02:16:39;100278.25;;;17.55;95.73
47738;BME280;33502;47.182;27.506;2022-07-23T02:19:04;100289.06;;;17.53;95.21
47738;BME280;33502;47.182;27.506;2022-07-23T02:21:30;100279.44;;;17.51;95.15
47738;BME280;33502;47.182;27.506;2022-07-23T02:23:56;100273.66;;;17.44;95.16
47738;BME280;33502;47.182;27.506;2022-07-23T02:26:22;100276.47;;;17.42;95.32
47738;BME280;33502;47.182;27.506;2022-07-23T02:28:50;100278.50;;;17.39;95.46
47738;BME280;33502;47.182;27.506;2022-07-23T02:31:18;100282.69;;;17.30;96.02
47738;BME280;33502;47.182;27.506;2022-07-23T02:33:44;100279.72;;;17.22;98.29
47738;BME280;33502;47.182;27.506;2022-07-23T02:36:10;100277.69;;;17.13;98.50
47738;BME280;33502;47.182;27.506;2022-07-23T02:38:36;100272.97;;;17.03;99.69
47738;BME280;33502;47.182;27.506;2022-07-23T02:41:03;100285.81;;;16.98;100.00
47738;BME280;33502;47.182;27.506;2022-07-23T02:43:28;100287.22;;;16.91;100.00
47738;BME280;33502;47.182;27.506;2022-07-23T02:45:55;100290.31;;;16.85;100.00
47738;BME280;33502;47.182;27.506;2022-07-23T02:48:20;100283.75;;;16.76;100.00
47738;BME280;33502;47.182;27.506;2022-07-23T02:50:47;100291.25;;;16.71;100.00
47738;BME280;33502;47.182;27.506;2022-07-23T02:53:17;100295.94;;;16.68;100.00
47738;BME280;33502;47.182;27.506;2022-07-23T02:55:44;100297.88;;;16.66;100.00
47738;BME280;33502;47.182;27.506;2022-07-23T02:58:10;100305.03;;;16.65;100.00
47738;BME280;33502;47.182;27.506;2022-07-23T03:00:36;100299.69;;;16.65;100.00
47738;BME280;33502;47.182;27.506;2022-07-23T03:03:02;100303.22;;;16.66;100.00
47738;BME280;33502;47.182;27.506;2022-07-23T03:05:29;100312.84;;;16.68;100.00
47738;BME280;33502;47.182;27.506;2022-07-23T03:07:55;100311.78;;;16.71;100.00
47738;BME280;33502;47.182;27.506;2022-07-23T03:10:21;100306.22;;;16.74;100.00
47738;BME280;33502;47.182;27.506;2022-07-23T03:12:46;100304.19;;;16.77;100.00
47738;BME280;33502;47.182;27.506;2022-07-23T03:15:12;100308.47;;;16.80;100.00
47738;BME280;33502;47.182;27.506;2022-07-23T03:17:38;100310.16;;;16.81;100.00
47738;BME280;33502;47.182;27.506;2022-07-23T03:20:04;100311.94;;;16.82;100.00
47738;BME280;33502;47.182;27.506;2022-07-23T03:22:30;100310.00;;;16.84;100.00
47738;BME280;33502;47.182;27.506;2022-07-23T03:24:56;100317.84;;;16.87;100.00
47738;BME280;33502;47.182;27.506;2022-07-23T03:27:30;100304.03;;;16.93;100.00
47738;BME280;33502;47.182;27.506;2022-07-23T03:29:57;100307.84;;;17.02;100.00
47738;BME280;33502;47.182;27.506;2022-07-23T03:32:24;100312.81;;;17.08;100.00
47738;BME280;33502;47.182;27.506;2022-07-23T03:34:50;100323.81;;;17.16;100.00
47738;BME280;33502;47.182;27.506;2022-07-23T03:37:16;100327.34;;;17.30;100.00
47738;BME280;33502;47.182;27.506;2022-07-23T03:39:43;100316.38;;;17.46;100.00
47738;BME280;33502;47.182;27.506;2022-07-23T03:42:09;100317.56;;;17.54;100.00
47738;BME280;33502;47.182;27.506;2022-07-23T03:44:35;100313.44;;;17.61;100.00
47738;BME280;33502;47.182;27.506;2022-07-23T03:47:03;100319.97;;;17.70;100.00
47738;BME280;33502;47.182;27.506;2022-07-23T03:49:30;100318.31;;;17.80;100.00
47738;BME280;33502;47.182;27.506;2022-07-23T03:51:56;100316.72;;;17.91;100.00
47738;BME280;33502;47.182;27.506;2022-07-23T03:54:21;100311.31;;;18.04;100.00
47738;BME280;33502;47.182;27.506;2022-07-23T03:56:47;100304.06;;;18.17;100.00
47738;BME280;33502;47.182;27.506;2022-07-23T03:59:13;100307.31;;;18.33;98.88
47738;BME280;33502;47.182;27.506;2022-07-23T04:01:39;100311.50;;;18.49;97.97
47738;BME280;33502;47.182;27.506;2022-07-23T04:04:05;100309.25;;;18.67;98.08
47738;BME280;33502;47.182;27.506;2022-07-23T04:06:32;100307.00;;;18.85;97.43
47738;BME280;33502;47.182;27.506;2022-07-23T04:08:59;100310.06;;;19.03;95.79
47738;BME280;33502;47.182;27.506;2022-07-23T04:11:24;100310.09;;;19.25;94.62
47738;BME280;33502;47.182;27.506;2022-07-23T04:13:52;100305.69;;;19.47;92.95
47738;BME280;33502;47.182;27.506;2022-07-23T04:16:21;100308.22;;;19.71;90.81
47738;BME280;33502;47.182;27.506;2022-07-23T04:18:46;100308.94;;;19.95;89.44
47738;BME280;33502;47.182;27.506;2022-07-23T04:21:16;100304.09;;;20.22;87.37
47738;BME280;33502;47.182;27.506;2022-07-23T04:23:43;100309.09;;;20.47;84.94
47738;BME280;33502;47.182;27.506;2022-07-23T04:26:09;100306.31;;;20.70;82.10
47738;BME280;33502;47.182;27.506;2022-07-23T04:28:34;100311.94;;;20.88;80.14
47738;BME280;33502;47.182;27.506;2022-07-23T04:31:03;100309.53;;;21.06;79.82
47738;BME280;33502;47.182;27.506;2022-07-23T04:33:29;100305.19;;;21.24;79.90
47738;BME280;33502;47.182;27.506;2022-07-23T04:35:58;100308.03;;;21.44;78.61
47738;BME280;33502;47.182;27.506;2022-07-23T04:38:23;100310.38;;;21.78;78.90
47738;BME280;33502;47.182;27.506;2022-07-23T04:40:53;100298.78;;;22.16;76.84
47738;BME280;33502;47.182;27.506;2022-07-23T04:43:19;100302.09;;;22.59;75.26
47738;BME280;33502;47.182;27.506;2022-07-23T04:45:48;100301.13;;;23.17;72.56
47738;BME280;33502;47.182;27.506;2022-07-23T04:48:14;100302.16;;;23.81;68.65
47738;BME280;33502;47.182;27.506;2022-07-23T04:50:40;100300.22;;;24.45;63.95
47738;BME280;33502;47.182;27.506;2022-07-23T04:53:14;100303.91;;;25.06;62.16
47738;BME280;33502;47.182;27.506;2022-07-23T04:55:41;100309.50;;;25.31;61.87
47738;BME280;33502;47.182;27.506;2022-07-23T04:58:06;100304.16;;;25.47;61.78
47738;BME280;33502;47.182;27.506;2022-07-23T05:00:32;100307.41;;;25.93;60.59
47738;BME280;33502;47.182;27.506;2022-07-23T05:02:58;100300.19;;;26.76;57.59
47738;BME280;33502;47.182;27.506;2022-07-23T05:05:24;100305.59;;;27.57;54.92
47738;BME280;33502;47.182;27.506;2022-07-23T05:07:53;100306.50;;;28.35;52.95
47738;BME280;33502;47.182;27.506;2022-07-23T05:10:19;100300.84;;;28.82;50.58
47738;BME280;33502;47.182;27.506;2022-07-23T05:12:46;100301.13;;;29.25;49.16
47738;BME280;33502;47.182;27.506;2022-07-23T05:15:12;100314.34;;;29.58;48.38
47738;BME280;33502;47.182;27.506;2022-07-23T05:17:38;100311.84;;;29.93;46.24
47738;BME280;33502;47.182;27.506;2022-07-23T05:20:10;100310.75;;;30.09;45.32
47738;BME280;33502;47.182;27.506;2022-07-23T05:22:36;100315.22;;;30.32;44.93
47738;BME280;33502;47.182;27.506;2022-07-23T05:25:02;100313.06;;;30.27;45.03
47738;BME280;33502;47.182;27.506;2022-07-23T05:27:30;100315.69;;;30.35;44.14
47738;BME280;33502;47.182;27.506;2022-07-23T05:29:56;100313.63;;;30.01;43.51
47738;BME280;33502;47.182;27.506;2022-07-23T05:32:23;100323.09;;;30.41;42.38
47738;BME280;33502;47.182;27.506;2022-07-23T05:34:57;100315.22;;;30.53;42.11
47738;BME280;33502;47.182;27.506;2022-07-23T05:37:23;100316.97;;;30.61;41.79
47738;BME280;33502;47.182;27.506;2022-07-23T05:39:49;100310.16;;;31.00;41.14
47738;BME280;33502;47.182;27.506;2022-07-23T05:42:15;100310.25;;;31.13;40.07
47738;BME280;33502;47.182;27.506;2022-07-23T05:44:42;100304.06;;;31.33;39.00
47738;BME280;33502;47.182;27.506;2022-07-23T05:47:08;100311.44;;;31.74;38.67
47738;BME280;33502;47.182;27.506;2022-07-23T05:49:36;100303.34;;;32.14;38.32
47738;BME280;33502;47.182;27.506;2022-07-23T05:52:31;100304.69;;;32.45;38.25
47738;BME280;33502;47.182;27.506;2022-07-23T05:55:17;100304.63;;;33.25;36.37
47738;BME280;33502;47.182;27.506;2022-07-23T05:57:42;100310.44;;;33.55;35.86
47738;BME280;33502;47.182;27.506;2022-07-23T06:00:09;100307.47;;;33.77;35.08
47738;BME280;33502;47.182;27.506;2022-07-23T06:02:44;100311.66;;;34.24;34.61
47738;BME280;33502;47.182;27.506;2022-07-23T06:05:11;100307.41;;;34.54;34.33
47738;BME280;33502;47.182;27.506;2022-07-23T06:07:38;100311.28;;;34.96;33.50
47738;BME280;33502;47.182;27.506;2022-07-23T06:10:04;100308.22;;;34.86;33.59
47738;BME280;33502;47.182;27.506;2022-07-23T06:12:31;100317.09;;;34.88;33.19
47738;BME280;33502;47.182;27.506;2022-07-23T06:14:57;100319.00;;;34.87;33.23
47738;BME280;33502;47.182;27.506;2022-07-23T06:17:23;100317.25;;;35.18;33.29
47738;BME280;33502;47.182;27.506;2022-07-23T06:19:49;100317.47;;;35.72;32.42
47738;BME280;33502;47.182;27.506;2022-07-23T06:22:15;100311.25;;;35.77;31.98
47738;BME280;33502;47.182;27.506;2022-07-23T06:24:41;100315.00;;;35.82;31.60
47738;BME280;33502;47.182;27.506;2022-07-23T06:27:06;100317.53;;;35.84;31.87
47738;BME280;33502;47.182;27.506;2022-07-23T06:29:34;100315.59;;;35.84;31.67
47738;BME280;33502;47.182;27.506;2022-07-23T06:32:00;100318.13;;;36.16;31.14
47738;BME280;33502;47.182;27.506;2022-07-23T06:34:25;100313.16;;;35.95;31.58
47738;BME280;33502;47.182;27.506;2022-07-23T06:36:51;100310.31;;;36.32;31.46
47738;BME280;33502;47.182;27.506;2022-07-23T06:39:17;100305.13;;;36.77;30.90
47738;BME280;33502;47.182;27.506;2022-07-23T06:41:47;100306.31;;;37.05;30.19
47738;BME280;33502;47.182;27.506;2022-07-23T06:44:12;100305.69;;;37.03;30.74
47738;BME280;33502;47.182;27.506;2022-07-23T06:46:40;100303.63;;;37.57;29.29
47738;BME280;33502;47.182;27.506;2022-07-23T06:49:06;100298.97;;;37.11;30.02
47738;BME280;33502;47.182;27.506;2022-07-23T06:51:32;100298.66;;;37.07;29.54
47738;BME280;33502;47.182;27.506;2022-07-23T06:54:00;100301.09;;;37.56;29.01
47738;BME280;33502;47.182;27.506;2022-07-23T06:56:26;100288.31;;;37.78;28.72
47738;BME280;33502;47.182;27.506;2022-07-23T06:58:53;100295.13;;;38.16;27.72
47738;BME280;33502;47.182;27.506;2022-07-23T07:01:19;100288.09;;;38.43;28.21
47738;BME280;33502;47.182;27.506;2022-07-23T07:03:45;100285.94;;;38.62;27.57
47738;BME280;33502;47.182;27.506;2022-07-23T07:06:11;100289.56;;;38.79;26.71
47738;BME280;33502;47.182;27.506;2022-07-23T07:08:36;100287.09;;;39.00;27.99
47738;BME280;33502;47.182;27.506;2022-07-23T07:11:03;100280.31;;;39.29;26.78
47738;BME280;33502;47.182;27.506;2022-07-23T07:13:28;100282.59;;;39.54;27.02
47738;BME280;33502;47.182;27.506;2022-07-23T07:15:54;100280.75;;;39.43;26.48
47738;BME280;33502;47.182;27.506;2022-07-23T07:18:20;100281.22;;;39.57;25.86
47738;BME280;33502;47.182;27.506;2022-07-23T07:20:46;100295.72;;;39.42;26.01
47738;BME280;33502;47.182;27.506;2022-07-23T07:23:12;100293.97;;;38.97;26.23
47738;BME280;33502;47.182;27.506;2022-07-23T07:25:38;100298.38;;;38.59;27.15
47738;BME280;33502;47.182;27.506;2022-07-23T07:28:04;100301.28;;;38.52;27.59
47738;BME280;33502;47.182;27.506;2022-07-23T07:30:30;100295.34;;;38.77;27.08
47738;BME280;33502;47.182;27.506;2022-07-23T07:32:55;100294.00;;;39.19;26.17
47738;BME280;33502;47.182;27.506;2022-07-23T07:35:21;100296.81;;;38.51;26.38
47738;BME280;33502;47.182;27.506;2022-07-23T07:37:47;100290.16;;;38.64;26.76
47738;BME280;33502;47.182;27.506;2022-07-23T07:40:13;100290.59;;;39.34;26.29
47738;BME280;33502;47.182;27.506;2022-07-23T07:42:49;100280.03;;;40.24;25.60
47738;BME280;33502;47.182;27.506;2022-07-23T07:45:15;100274.91;;;40.11;25.07
47738;BME280;33502;47.182;27.506;2022-07-23T07:47:41;100272.25;;;39.94;25.49
47738;BME280;33502;47.182;27.506;2022-07-23T07:50:08;100269.41;;;39.67;25.57
47738;BME280;33502;47.182;27.506;2022-07-23T07:52:35;100270.22;;;39.62;26.02
47738;BME280;33502;47.182;27.506;2022-07-23T07:55:03;100268.75;;;39.82;25.87
47738;BME280;33502;47.182;27.506;2022-07-23T07:57:29;100272.19;;;39.89;25.53
47738;BME280;33502;47.182;27.506;2022-07-23T07:59:55;100277.25;;;39.97;26.15
47738;BME280;33502;47.182;27.506;2022-07-23T08:02:21;100273.00;;;40.17;26.25
47738;BME280;33502;47.182;27.506;2022-07-23T08:04:47;100266.03;;;40.41;25.65
47738;BME280;33502;47.182;27.506;2022-07-23T08:07:14;100267.47;;;39.89;25.66
47738;BME280;33502;47.182;27.506;2022-07-23T08:09:40;100270.56;;;38.88;26.83
47738;BME280;33502;47.182;27.506;2022-07-23T08:12:06;100275.78;;;39.01;27.12
47738;BME280;33502;47.182;27.506;2022-07-23T08:14:32;100274.06;;;39.39;27.72
47738;BME280;33502;47.182;27.506;2022-07-23T08:16:58;100268.41;;;39.51;27.12
47738;BME280;33502;47.182;27.506;2022-07-23T08:19:24;100265.00;;;40.20;26.44
47738;BME280;33502;47.182;27.506;2022-07-23T08:21:49;100261.59;;;40.78;25.90
47738;BME280;33502;47.182;27.506;2022-07-23T08:24:15;100253.44;;;41.03;25.39
47738;BME280;33502;47.182;27.506;2022-07-23T08:26:41;100258.00;;;41.25;24.66
47738;BME280;33502;47.182;27.506;2022-07-23T08:29:07;100253.00;;;40.79;24.63
47738;BME280;33502;47.182;27.506;2022-07-23T08:31:33;100249.22;;;40.53;24.98
47738;BME280;33502;47.182;27.506;2022-07-23T08:34:00;100257.72;;;40.79;24.92
47738;BME280;33502;47.182;27.506;2022-07-23T08:36:28;100250.66;;;40.66;25.12
47738;BME280;33502;47.182;27.506;2022-07-23T08:39:00;100255.28;;;40.87;24.92
47738;BME280;33502;47.182;27.506;2022-07-23T08:41:29;100252.47;;;40.45;24.94
47738;BME280;33502;47.182;27.506;2022-07-23T08:43:55;100262.28;;;40.58;25.13
47738;BME280;33502;47.182;27.506;2022-07-23T08:46:22;100251.91;;;40.85;25.03
47738;BME280;33502;47.182;27.506;2022-07-23T08:48:49;100258.06;;;40.93;25.18
47738;BME280;33502;47.182;27.506;2022-07-23T08:51:15;100249.22;;;40.53;25.41
47738;BME280;33502;47.182;27.506;2022-07-23T08:53:42;100249.66;;;40.40;25.65
47738;BME280;33502;47.182;27.506;2022-07-23T08:56:08;100258.03;;;40.82;24.94
47738;BME280;33502;47.182;27.506;2022-07-23T08:58:34;100260.50;;;40.79;26.22
47738;BME280;33502;47.182;27.506;2022-07-23T09:01:01;100251.31;;;41.21;25.59
47738;BME280;33502;47.182;27.506;2022-07-23T09:03:31;100252.06;;;41.11;26.11
47738;BME280;33502;47.182;27.506;2022-07-23T09:05:58;100253.72;;;41.70;24.42
47738;BME280;33502;47.182;27.506;2022-07-23T09:08:34;100253.66;;;41.60;24.69
47738;BME280;33502;47.182;27.506;2022-07-23T09:11:01;100250.63;;;41.56;24.43
47738;BME280;33502;47.182;27.506;2022-07-23T09:16:12;100249.56;;;41.73;24.73
47738;BME280;33502;47.182;27.506;2022-07-23T09:18:48;100254.00;;;41.69;25.52
47738;BME280;33502;47.182;27.506;2022-07-23T09:21:16;100249.66;;;41.25;25.24
47738;BME280;33502;47.182;27.506;2022-07-23T09:23:51;100254.78;;;40.96;25.79
47738;BME280;33502;47.182;27.506;2022-07-23T09:26:24;100250.56;;;40.93;25.33
47738;BME280;33502;47.182;27.506;2022-07-23T09:31:41;100262.53;;;40.24;25.23
47738;BME280;33502;47.182;27.506;2022-07-23T09:34:09;100255.97;;;39.53;26.52
47738;BME280;33502;47.182;27.506;2022-07-23T09:36:36;100255.63;;;39.06;26.79
47738;BME280;33502;47.182;27.506;2022-07-23T09:39:03;100252.06;;;38.71;28.51
47738;BME280;33502;47.182;27.506;2022-07-23T09:41:40;100255.31;;;38.85;27.49
47738;BME280;33502;47.182;27.506;2022-07-23T09:44:10;100252.47;;;38.29;27.49
47738;BME280;33502;47.182;27.506;2022-07-23T09:46:37;100244.19;;;38.63;28.49
47738;BME280;33502;47.182;27.506;2022-07-23T09:49:11;100239.34;;;38.53;28.72
47738;BME280;33502;47.182;27.506;2022-07-23T09:51:45;100248.75;;;38.07;28.37
47738;BME280;33502;47.182;27.506;2022-07-23T09:54:34;100232.28;;;38.46;26.94
47738;BME280;33502;47.182;27.506;2022-07-23T09:57:09;100232.88;;;38.48;26.07
47738;BME280;33502;47.182;27.506;2022-07-23T09:59:39;100233.75;;;38.03;26.35
47738;BME280;33502;47.182;27.506;2022-07-23T10:02:07;100229.03;;;38.15;27.03
47738;BME280;33502;47.182;27.506;2022-07-23T10:04:43;100225.94;;;38.28;25.95
47738;BME280;33502;47.182;27.506;2022-07-23T10:07:25;100224.88;;;39.02;26.50
47738;BME280;33502;47.182;27.506;2022-07-23T10:10:11;100225.13;;;39.01;25.84
47738;BME280;33502;47.182;27.506;2022-07-23T10:13:14;100223.69;;;38.59;26.93
47738;BME280;33502;47.182;27.506;2022-07-23T10:16:01;100226.28;;;38.66;28.47
47738;BME280;33502;47.182;27.506;2022-07-23T10:18:27;100214.28;;;38.60;27.55
47738;BME280;33502;47.182;27.506;2022-07-23T10:20:53;100210.16;;;38.46;26.84
47738;BME280;33502;47.182;27.506;2022-07-23T10:31:03;100207.75;;;38.66;27.12
47738;BME280;33502;47.182;27.506;2022-07-23T10:34:16;100199.72;;;38.87;26.58
47738;BME280;33502;47.182;27.506;2022-07-23T10:36:52;100201.09;;;38.67;25.74
47738;BME280;33502;47.182;27.506;2022-07-23T10:39:31;100193.91;;;38.32;26.72
47738;BME280;33502;47.182;27.506;2022-07-23T10:42:26;100200.44;;;37.64;26.45
47738;BME280;33502;47.182;27.506;2022-07-23T10:44:58;100187.00;;;37.27;26.66
47738;BME280;33502;47.182;27.506;2022-07-23T10:47:28;100185.22;;;37.09;27.08
47738;BME280;33502;47.182;27.506;2022-07-23T10:50:23;100188.84;;;37.50;27.19
47738;BME280;33502;47.182;27.506;2022-07-23T10:58:01;100175.47;;;38.04;26.31
47738;BME280;33502;47.182;27.506;2022-07-23T11:00:33;100177.00;;;37.37;25.92
47738;BME280;33502;47.182;27.506;2022-07-23T11:03:01;100169.66;;;37.02;26.73
47738;BME280;33502;47.182;27.506;2022-07-23T11:05:44;100172.41;;;37.43;26.42
47738;BME280;33502;47.182;27.506;2022-07-23T11:08:16;100172.09;;;37.56;26.91
47738;BME280;33502;47.182;27.506;2022-07-23T11:10:50;100163.75;;;38.14;27.95
47738;BME280;33502;47.182;27.506;2022-07-23T11:16:07;100163.44;;;38.10;26.82
47738;BME280;33502;47.182;27.506;2022-07-23T11:24:06;100166.31;;;38.93;25.76
47738;BME280;33502;47.182;27.506;2022-07-23T11:26:50;100157.91;;;39.05;26.11
47738;BME280;33502;47.182;27.506;2022-07-23T11:36:59;100140.63;;;38.98;25.00
47738;BME280;33502;47.182;27.506;2022-07-23T11:39:27;100136.28;;;39.02;26.11
47738;BME280;33502;47.182;27.506;2022-07-23T11:41:53;100132.25;;;38.71;25.82
47738;BME280;33502;47.182;27.506;2022-07-23T11:44:26;100132.03;;;38.94;25.98
47738;BME280;33502;47.182;27.506;2022-07-23T11:49:22;100131.94;;;39.61;25.31
47738;BME280;33502;47.182;27.506;2022-07-23T11:52:13;100132.16;;;39.05;24.30
47738;BME280;33502;47.182;27.506;2022-07-23T11:54:58;100124.34;;;39.24;23.43
47738;BME280;33502;47.182;27.506;2022-07-23T11:57:26;100122.97;;;39.26;24.56
47738;BME280;33502;47.182;27.506;2022-07-23T11:59:55;100114.56;;;38.94;25.85
47738;BME280;33502;47.182;27.506;2022-07-23T12:02:21;100115.88;;;39.63;25.03
47738;BME280;33502;47.182;27.506;2022-07-23T12:04:50;100120.88;;;39.93;24.54
47738;BME280;33502;47.182;27.506;2022-07-23T12:09:50;100100.19;;;40.06;23.73
47738;BME280;33502;47.182;27.506;2022-07-23T12:12:16;100104.31;;;40.03;23.81
47738;BME280;33502;47.182;27.506;2022-07-23T12:14:51;100098.03;;;39.48;24.08
47738;BME280;33502;47.182;27.506;2022-07-23T12:17:17;100102.00;;;39.58;24.21
47738;BME280;33502;47.182;27.506;2022-07-23T12:19:43;100093.97;;;39.93;23.38
47738;BME280;33502;47.182;27.506;2022-07-23T12:22:10;100093.56;;;40.12;24.08
47738;BME280;33502;47.182;27.506;2022-07-23T12:24:59;100098.03;;;40.18;23.79
47738;BME280;33502;47.182;27.506;2022-07-23T12:27:27;100099.81;;;39.65;24.56
47738;BME280;33502;47.182;27.506;2022-07-23T12:29:53;100105.31;;;39.32;24.80
47738;BME280;33502;47.182;27.506;2022-07-23T12:32:25;100105.06;;;39.88;24.28
47738;BME280;33502;47.182;27.506;2022-07-23T12:35:06;100097.38;;;40.01;23.76
47738;BME280;33502;47.182;27.506;2022-07-23T12:37:37;100095.97;;;40.41;23.17
47738;BME280;33502;47.182;27.506;2022-07-23T12:40:20;100089.41;;;40.57;22.63
47738;BME280;33502;47.182;27.506;2022-07-23T12:42:48;100093.84;;;40.53;23.99
47738;BME280;33502;47.182;27.506;2022-07-23T12:45:14;100086.63;;;40.09;23.94
47738;BME280;33502;47.182;27.506;2022-07-23T12:47:56;100088.94;;;40.23;23.53
47738;BME280;33502;47.182;27.506;2022-07-23T12:53:10;100086.06;;;40.12;24.29
47738;BME280;33502;47.182;27.506;2022-07-23T12:55:37;100082.81;;;40.26;23.34
47738;BME280;33502;47.182;27.506;2022-07-23T12:58:05;100082.28;;;39.86;23.91
47738;BME280;33502;47.182;27.506;2022-07-23T13:00:33;100083.81;;;39.72;25.14
47738;BME280;33502;47.182;27.506;2022-07-23T13:05:52;100078.78;;;38.65;24.83
47738;BME280;33502;47.182;27.506;2022-07-23T13:08:18;100076.78;;;38.83;24.54
47738;BME280;33502;47.182;27.506;2022-07-23T13:10:44;100076.97;;;39.47;24.93
47738;BME280;33502;47.182;27.506;2022-07-23T13:13:14;100079.59;;;39.97;24.31
47738;BME280;33502;47.182;27.506;2022-07-23T13:15:41;100075.78;;;40.50;24.33
47738;BME280;33502;47.182;27.506;2022-07-23T13:18:07;100084.34;;;40.44;24.07
47738;BME280;33502;47.182;27.506;2022-07-23T13:20:33;100083.94;;;40.30;24.46
47738;BME280;33502;47.182;27.506;2022-07-23T13:23:00;100091.81;;;40.01;24.59
47738;BME280;33502;47.182;27.506;2022-07-23T13:25:26;100088.19;;;39.95;25.04
47738;BME280;33502;47.182;27.506;2022-07-23T13:27:52;100091.81;;;39.63;25.49
47738;BME280;33502;47.182;27.506;2022-07-23T13:30:18;100085.63;;;39.29;24.26